Time;durP1;ratioP1;P1;durP2;ratioP2;P2;SDS_P1;SDS_P2;PMS_P1;PMS_P2;Temp;Humidity;BMP_temperature;BMP_pressure;BME280_temperature;BME280_humidity;BME280_pressure;Samples;Min_cycle;Max_cycle;Signal;HPM_P1;HPM_P2
2023/01/16 00:00:14;;;;;;;;;2.00;0.00;;;;;7.83;66.25;99298.03;5059810;28;46332;-56
2023/01/16 00:02:40;;;;;;;;;2.25;1.00;;;;;7.83;66.16;99264.03;5059910;28;45216;-55
2023/01/16 00:05:05;;;;;;;;;3.75;1.25;;;;;7.80;66.20;99251.91;5059803;28;45308;-55
2023/01/16 00:07:30;;;;;;;;;1.50;1.00;;;;;7.83;66.23;99227.44;5060218;28;45231;-55
2023/01/16 00:09:56;;;;;;;;;1.75;0.00;;;;;7.78;66.35;99217.94;5059731;28;45189;-55
2023/01/16 00:12:21;;;;;;;;;4.50;1.00;;;;;7.83;66.46;99216.97;5058325;28;45804;-54
2023/01/16 00:14:46;;;;;;;;;2.00;1.25;;;;;7.84;66.01;99190.75;5060105;28;45232;-55
2023/01/16 00:17:12;;;;;;;;;0.75;0.75;;;;;7.81;66.45;99189.09;5059838;28;45220;-54
2023/01/16 00:19:37;;;;;;;;;2.00;1.00;;;;;7.86;66.43;99170.66;5059918;28;45149;-56
2023/01/16 00:22:02;;;;;;;;;1.50;1.00;;;;;7.84;66.31;99145.47;5059653;28;45416;-56
2023/01/16 00:24:28;;;;;;;;;2.00;1.25;;;;;7.80;66.49;99136.84;5059781;28;45860;-56
2023/01/16 00:26:53;;;;;;;;;2.75;1.75;;;;;7.81;66.47;99126.31;5059561;28;45339;-55
2023/01/16 00:29:19;;;;;;;;;3.50;1.50;;;;;7.81;66.35;99108.00;5060776;28;46168;-55
2023/01/16 00:31:44;;;;;;;;;1.00;1.00;;;;;7.79;66.54;99094.13;5059602;28;45524;-55
2023/01/16 00:34:10;;;;;;;;;0.00;0.00;;;;;7.85;66.47;99077.41;5059837;28;45261;-56
2023/01/16 00:36:36;;;;;;;;;3.75;1.00;;;;;7.84;66.33;99057.38;5059574;28;45237;-55
2023/01/16 00:39:02;;;;;;;;;2.00;1.00;;;;;7.84;66.48;99053.91;5059185;28;46060;-55
2023/01/16 00:41:27;;;;;;;;;1.75;1.00;;;;;7.85;66.32;99035.56;5059224;28;45398;-55
2023/01/16 00:43:54;;;;;;;;;2.25;1.25;;;;;7.79;66.71;99018.28;5060072;28;45217;-55
2023/01/16 00:46:19;;;;;;;;;0.50;0.50;;;;;7.80;66.72;99009.53;5059482;28;45177;-55
2023/01/16 00:48:45;;;;;;;;;2.00;1.00;;;;;7.86;66.25;98984.09;5058240;28;45408;-55
2023/01/16 00:51:10;;;;;;;;;1.00;0.00;;;;;7.84;66.60;98968.47;5059376;28;45242;-54
2023/01/16 00:53:35;;;;;;;;;2.00;1.25;;;;;7.81;66.62;98968.53;5059541;28;45177;-55
2023/01/16 00:56:01;;;;;;;;;1.00;1.00;;;;;7.79;66.68;98950.28;5059141;28;45215;-55
2023/01/16 00:58:26;;;;;;;;;0.00;0.00;;;;;7.87;66.21;98931.72;5059533;28;45537;-55
2023/01/16 01:00:51;;;;;;;;;1.50;0.00;;;;;7.85;66.59;98917.88;5059120;28;45426;-54
2023/01/16 01:03:17;;;;;;;;;2.00;1.50;;;;;7.85;66.53;98889.09;5058078;28;45605;-54
2023/01/16 01:05:42;;;;;;;;;3.75;0.50;;;;;7.84;66.89;98882.16;5059122;28;45371;-55
2023/01/16 01:08:08;;;;;;;;;0.75;0.75;;;;;7.86;66.59;98862.03;5058508;28;45402;-54
2023/01/16 01:10:36;;;;;;;;;3.50;0.00;;;;;7.85;66.52;98854.22;5057710;28;45815;-54
2023/01/16 01:13:01;;;;;;;;;1.00;0.50;;;;;7.86;66.46;98825.44;5062278;28;45316;-55
2023/01/16 01:15:27;;;;;;;;;1.00;0.00;;;;;7.84;66.41;98823.78;5062251;28;45525;-54
2023/01/16 01:17:52;;;;;;;;;3.50;0.50;;;;;7.84;66.75;98802.84;5060787;28;47519;-54
2023/01/16 01:20:18;;;;;;;;;0.50;0.50;;;;;7.83;66.63;98790.69;5062357;28;45267;-55
2023/01/16 01:22:45;;;;;;;;;0.00;0.00;;;;;7.86;66.88;98790.56;5061092;28;45263;-55
2023/01/16 01:25:10;;;;;;;;;1.25;1.00;;;;;7.87;66.79;98763.50;5062499;28;45488;-55
2023/01/16 01:27:36;;;;;;;;;0.25;0.00;;;;;7.83;66.92;98769.75;5043923;28;45549;-55
2023/01/16 01:30:01;;;;;;;;;0.00;0.00;;;;;7.83;66.76;98735.75;5063548;28;45438;-54
2023/01/16 01:32:26;;;;;;;;;1.00;0.00;;;;;7.83;66.81;98720.91;5062318;28;45304;-55
2023/01/16 01:34:52;;;;;;;;;0.00;0.00;;;;;7.85;67.04;98713.00;5062072;28;45258;-53
2023/01/16 01:37:17;;;;;;;;;1.00;0.00;;;;;7.89;66.39;98689.31;5062023;28;46064;-54
2023/01/16 01:39:42;;;;;;;;;1.00;1.00;;;;;7.90;66.63;98659.66;5060696;28;45454;-54
2023/01/16 01:44:57;;;;;;;;;0.00;0.00;;;;;7.94;66.38;98658.63;5062226;28;45372;-55
2023/01/16 01:47:36;;;;;;;;;0.25;0.25;;;;;7.90;66.82;98640.47;5061918;28;46093;-55
2023/01/16 01:50:12;;;;;;;;;2.00;0.00;;;;;7.87;67.14;98607.44;5060627;28;45806;-54
2023/01/16 01:52:39;;;;;;;;;0.00;0.00;;;;;7.80;67.36;98596.34;5061897;28;45249;-53
2023/01/16 01:55:09;;;;;;;;;1.00;1.00;;;;;7.80;67.29;98564.97;5060541;28;45504;-54
2023/01/16 01:57:42;;;;;;;;;0.75;0.75;;;;;7.81;67.14;98563.22;5061730;28;45278;-53
2023/01/16 02:00:14;;;;;;;;;2.25;1.25;;;;;7.83;66.85;98547.47;5062045;28;45259;-54
2023/01/16 02:02:46;;;;;;;;;0.50;0.50;;;;;7.77;67.02;98527.63;5061835;28;45414;-55
2023/01/16 02:05:15;;;;;;;;;1.00;1.00;;;;;7.81;66.85;98523.97;5061612;28;45383;-54
2023/01/16 02:07:41;;;;;;;;;6.00;0.00;;;;;7.74;67.06;98497.22;5059983;28;47135;-55
2023/01/16 02:10:49;;;;;;;;;2.00;1.00;;;;;7.73;67.06;98486.84;5062018;28;45220;-55
2023/01/16 02:13:15;;;;;;;;;1.00;1.00;;;;;7.68;66.96;98478.31;5053416;28;45360;-54
2023/01/16 02:21:35;;;;;;;;;1.50;0.25;;;;;7.52;67.80;98441.44;5061698;28;45257;-57
2023/01/16 02:24:22;;;;;;;;;1.25;0.50;;;;;7.42;67.88;98417.44;5061320;28;45383;-57
2023/01/16 02:27:24;;;;;;;;;0.75;0.25;;;;;7.34;67.88;98395.97;5061222;28;45414;-58
2023/01/16 02:29:58;;;;;;;;;0.50;0.00;;;;;7.21;68.50;98395.56;5062471;28;46046;-58
2023/01/16 02:32:38;;;;;;;;;1.00;0.00;;;;;7.12;68.52;98373.28;5061255;28;45465;-59
2023/01/16 02:35:21;;;;;;;;;0.00;0.00;;;;;7.02;68.88;98378.00;5061348;28;45312;-58
2023/01/16 02:38:30;;;;;;;;;1.00;0.00;;;;;6.91;68.87;98361.88;5061080;28;45525;-58
2023/01/16 02:41:16;;;;;;;;;1.50;0.50;;;;;6.89;69.37;98330.59;5061106;28;46176;-56
2023/01/16 02:44:08;;;;;;;;;1.75;0.75;;;;;6.80;69.23;98310.06;5061030;28;45232;-52
2023/01/16 02:47:03;;;;;;;;;1.50;0.00;;;;;6.64;69.60;98300.19;5061287;28;45294;-53
2023/01/16 02:49:40;;;;;;;;;1.00;0.00;;;;;6.60;69.60;98305.56;5061085;28;45235;-57
2023/01/16 02:52:21;;;;;;;;;0.00;0.00;;;;;6.49;70.65;98272.03;5061024;28;45928;-57
2023/01/16 02:55:20;;;;;;;;;3.00;0.00;;;;;6.52;69.85;98274.56;5060674;28;45327;-56
2023/01/16 02:57:49;;;;;;;;;2.25;0.75;;;;;6.38;70.49;98241.16;5060885;28;45245;-57
2023/01/16 03:00:16;;;;;;;;;1.00;0.00;;;;;6.39;70.62;98244.59;5061065;28;45327;-57
2023/01/16 03:02:43;;;;;;;;;2.50;0.75;;;;;6.31;70.71;98255.31;5060700;28;46212;-58
2023/01/16 03:05:09;;;;;;;;;0.00;0.00;;;;;6.27;70.54;98238.09;5060647;28;45255;-58
2023/01/16 03:07:55;;;;;;;;;1.00;0.00;;;;;6.27;71.10;98227.66;5059477;28;45261;-57
2023/01/16 03:10:45;;;;;;;;;0.00;0.00;;;;;6.22;71.15;98219.16;5060773;28;45372;-57
2023/01/16 03:13:38;;;;;;;;;1.50;0.00;;;;;6.15;71.52;98223.72;5060513;28;45423;-58
2023/01/16 03:16:14;;;;;;;;;0.00;0.00;;;;;6.22;71.08;98193.06;5060532;28;45406;-57
2023/01/16 03:18:59;;;;;;;;;3.00;0.00;;;;;6.17;71.10;98191.47;5060778;28;45338;-56
2023/01/16 03:21:55;;;;;;;;;0.00;0.00;;;;;6.07;72.29;98171.00;5060866;28;45457;-57
2023/01/16 03:24:21;;;;;;;;;1.00;0.00;;;;;6.07;72.24;98160.56;5059749;28;45531;-57
2023/01/16 03:26:51;;;;;;;;;0.00;0.00;;;;;6.12;72.02;98145.59;5060475;28;45437;-57
2023/01/16 03:29:22;;;;;;;;;1.50;0.50;;;;;6.07;71.77;98158.81;5043730;28;45220;-57
2023/01/16 03:32:13;;;;;;;;;0.00;0.00;;;;;6.05;72.22;98145.00;5060522;28;45348;-57
2023/01/16 03:35:02;;;;;;;;;0.50;0.50;;;;;6.05;72.47;98138.91;5058450;28;45696;-58
2023/01/16 03:37:40;;;;;;;;;0.00;0.00;;;;;6.00;72.89;98131.28;5060244;28;45442;-58
2023/01/16 03:40:11;;;;;;;;;0.00;0.00;;;;;5.99;73.07;98140.84;5060601;28;45161;-58
2023/01/16 03:42:45;;;;;;;;;0.00;0.00;;;;;5.97;73.73;98134.78;5060326;28;45446;-57
2023/01/16 03:45:27;;;;;;;;;0.75;0.00;;;;;5.92;74.29;98138.50;5060124;28;46308;-57
2023/01/16 03:48:18;;;;;;;;;0.00;0.00;;;;;6.04;73.77;98143.28;5060197;28;45290;-57
2023/01/16 03:50:51;;;;;;;;;0.00;0.00;;;;;5.95;74.85;98107.94;5060388;28;45316;-58
2023/01/16 03:53:21;;;;;;;;;1.00;0.00;;;;;5.95;73.71;98128.81;5058672;28;45445;-57
2023/01/16 03:56:00;;;;;;;;;0.25;0.00;;;;;6.08;74.15;98147.47;5060199;28;46571;-57
2023/01/16 03:58:36;;;;;;;;;0.00;0.00;;;;;6.08;73.61;98134.44;5058438;28;45416;-57
2023/01/16 04:01:23;;;;;;;;;0.00;0.00;;;;;6.01;73.45;98099.06;5060099;28;45350;-59
2023/01/16 04:04:01;;;;;;;;;1.00;0.00;;;;;6.03;73.83;98094.66;5060021;28;45415;-58
2023/01/16 04:06:41;;;;;;;;;0.00;0.00;;;;;6.02;73.65;98108.59;5059845;28;45246;-58
2023/01/16 04:09:13;;;;;;;;;0.00;0.00;;;;;6.00;74.00;98107.81;5058324;28;45296;-57
2023/01/16 04:11:40;;;;;;;;;0.75;0.00;;;;;5.95;73.89;98057.56;5059896;28;45342;-57
2023/01/16 04:14:09;;;;;;;;;0.50;0.00;;;;;5.91;73.95;98072.50;5058393;28;45352;-58
2023/01/16 04:16:36;;;;;;;;;0.00;0.00;;;;;5.90;74.76;98055.16;5060004;28;45244;-58
2023/01/16 04:19:03;;;;;;;;;0.00;0.00;;;;;5.92;74.45;98029.00;5059756;28;45382;-58
2023/01/16 04:21:31;;;;;;;;;0.00;0.00;;;;;5.84;74.23;98006.69;5059913;28;45367;-58
2023/01/16 04:23:58;;;;;;;;;0.00;0.00;;;;;5.82;74.55;98018.94;5058306;28;45564;-61
2023/01/16 04:26:24;;;;;;;;;1.00;0.00;;;;;5.81;74.60;98004.22;5059531;28;46264;-60
2023/01/16 04:28:54;;;;;;;;;0.00;0.00;;;;;5.85;74.38;97990.16;5059587;28;45344;-57
2023/01/16 04:31:21;;;;;;;;;0.00;0.00;;;;;5.80;74.74;97973.84;5059825;28;45253;-57
2023/01/16 04:33:47;;;;;;;;;0.00;0.00;;;;;5.81;74.02;97967.72;5059697;28;45446;-57
2023/01/16 04:36:12;;;;;;;;;0.00;0.00;;;;;5.83;74.54;97958.06;5059522;28;46242;-57
2023/01/16 04:38:37;;;;;;;;;0.75;0.00;;;;;5.77;74.60;97960.91;5059436;28;45283;-57
2023/01/16 04:41:03;;;;;;;;;1.00;0.00;;;;;5.80;74.45;97954.75;5059788;28;45594;-56
2023/01/16 04:43:28;;;;;;;;;0.00;0.00;;;;;5.83;74.44;97957.22;5059539;28;45455;-55
2023/01/16 04:45:53;;;;;;;;;0.00;0.00;;;;;5.87;74.37;97940.56;5058201;28;47055;-55
2023/01/16 04:48:19;;;;;;;;;1.00;0.00;;;;;5.87;74.13;97932.72;5062920;28;45168;-54
2023/01/16 04:50:48;;;;;;;;;1.00;0.00;;;;;5.82;74.16;97919.91;5063203;28;45221;-55
2023/01/16 04:53:13;;;;;;;;;1.00;0.00;;;;;5.82;74.30;97901.66;5061497;28;45394;-55
2023/01/16 04:55:38;;;;;;;;;0.00;0.00;;;;;5.85;74.16;97895.47;5062892;28;45338;-55
2023/01/16 04:58:04;;;;;;;;;0.00;0.00;;;;;5.91;74.35;97894.38;5062668;28;45349;-55
2023/01/16 05:00:29;;;;;;;;;0.00;0.00;;;;;5.91;73.96;97878.72;5063092;28;45512;-54
2023/01/16 05:02:54;;;;;;;;;0.00;0.00;;;;;6.01;74.52;97854.88;5062899;28;45334;-53
2023/01/16 05:05:20;;;;;;;;;0.00;0.00;;;;;6.02;74.52;97845.28;5062579;28;45340;-53
2023/01/16 05:07:45;;;;;;;;;1.00;0.00;;;;;6.08;74.31;97844.19;5077963;27;45376;-53
2023/01/16 05:10:10;;;;;;;;;0.00;0.00;;;;;6.09;74.26;97832.81;5063403;28;45286;-53
2023/01/16 05:12:36;;;;;;;;;0.00;0.00;;;;;6.09;74.15;97823.25;5062514;28;45319;-54
2023/01/16 05:15:01;;;;;;;;;0.00;0.00;;;;;6.16;74.62;97813.41;5062614;28;45396;-53
2023/01/16 05:17:26;;;;;;;;;0.75;0.00;;;;;6.18;74.03;97816.81;5062536;28;45307;-52
2023/01/16 05:19:52;;;;;;;;;1.25;0.00;;;;;6.16;74.35;97798.63;5062910;28;45791;-54
2023/01/16 05:22:18;;;;;;;;;0.00;0.00;;;;;6.15;74.28;97783.00;5062474;28;45549;-54
2023/01/16 05:24:43;;;;;;;;;1.25;0.25;;;;;6.23;74.25;97767.06;5062572;28;45321;-53
2023/01/16 05:27:08;;;;;;;;;0.00;0.00;;;;;6.24;74.28;97764.38;5062292;28;45258;-51
2023/01/16 05:29:34;;;;;;;;;1.00;0.25;;;;;6.28;74.18;97762.50;5063996;28;45168;-55
2023/01/16 05:31:59;;;;;;;;;3.75;1.75;;;;;6.34;74.62;97775.25;5062412;28;45158;-53
2023/01/16 05:34:24;;;;;;;;;1.00;0.00;;;;;6.43;74.88;97758.34;5062389;28;45222;-54
2023/01/16 05:36:50;;;;;;;;;0.75;0.00;;;;;6.40;74.39;97758.47;5061001;28;45201;-55
2023/01/16 05:39:15;;;;;;;;;0.00;0.00;;;;;6.50;74.59;97749.31;5062378;28;45420;-55
2023/01/16 05:41:40;;;;;;;;;0.00;0.00;;;;;6.41;74.48;97695.78;5062147;28;46088;-55
2023/01/16 05:44:05;;;;;;;;;2.00;0.00;;;;;6.45;74.96;97741.72;5062353;28;46231;-55
2023/01/16 05:46:31;;;;;;;;;0.75;0.75;;;;;6.53;74.95;97727.44;5062123;28;45236;-55
2023/01/16 05:48:56;;;;;;;;;0.00;0.00;;;;;6.58;74.58;97728.09;5062850;28;45257;-54
2023/01/16 05:51:21;;;;;;;;;0.50;0.00;;;;;6.58;74.77;97717.66;5062046;28;45608;-56
2023/01/16 05:53:51;;;;;;;;;2.00;0.00;;;;;6.69;75.04;97718.00;5061952;28;46140;-55
2023/01/16 05:56:21;;;;;;;;;2.00;1.50;;;;;6.80;74.98;97715.72;5060077;28;45429;-55
2023/01/16 05:58:46;;;;;;;;;0.00;0.00;;;;;6.72;74.01;97691.78;5062016;28;45285;-55
2023/01/16 06:01:11;;;;;;;;;1.25;0.00;;;;;6.69;74.12;97689.28;5061962;28;45261;-55
2023/01/16 06:03:37;;;;;;;;;1.00;1.00;;;;;6.66;74.34;97679.84;5061790;28;46105;-56
2023/01/16 06:06:02;;;;;;;;;0.75;0.50;;;;;6.66;74.11;97676.41;5061736;28;45396;-56
2023/01/16 06:08:27;;;;;;;;;7.75;4.00;;;;;6.72;74.63;97678.72;5060588;28;45963;-56
2023/01/16 06:10:53;;;;;;;;;0.00;0.00;;;;;6.67;74.38;97672.88;5061661;28;45754;-56
2023/01/16 06:13:19;;;;;;;;;0.75;0.75;;;;;6.78;74.51;97665.38;5061767;28;46288;-57
2023/01/16 06:15:44;;;;;;;;;0.00;0.00;;;;;6.87;74.40;97655.41;5061760;28;45331;-56
2023/01/16 06:18:10;;;;;;;;;0.00;0.00;;;;;6.89;73.61;97656.19;5060638;28;45433;-56
2023/01/16 06:20:36;;;;;;;;;2.00;0.00;;;;;6.90;73.91;97655.28;5061514;28;45470;-56
2023/01/16 06:23:01;;;;;;;;;2.25;1.00;;;;;6.85;73.30;97657.25;5059440;28;45710;-56
2023/01/16 06:25:26;;;;;;;;;2.00;1.00;;;;;6.91;73.86;97643.91;5060226;28;45379;-56
2023/01/16 06:27:52;;;;;;;;;0.00;0.00;;;;;6.91;73.89;97654.34;5061698;28;45431;-56
2023/01/16 06:30:18;;;;;;;;;1.50;1.25;;;;;6.91;73.69;97654.34;5062594;28;45567;-57
2023/01/16 06:32:48;;;;;;;;;0.50;0.00;;;;;6.88;73.40;97636.22;5060200;28;47257;-57
2023/01/16 06:35:13;;;;;;;;;1.50;1.50;;;;;6.86;73.38;97619.81;5059895;28;45411;-56
2023/01/16 06:37:38;;;;;;;;;2.75;2.00;;;;;6.91;72.90;97618.66;5061252;28;45352;-56
2023/01/16 06:40:04;;;;;;;;;2.50;0.75;;;;;6.91;73.64;97633.47;5061289;28;45355;-57
2023/01/16 06:42:29;;;;;;;;;1.25;0.00;;;;;6.89;73.70;97620.47;5061117;28;45354;-57
2023/01/16 06:44:55;;;;;;;;;1.00;1.00;;;;;6.93;73.87;97598.53;5061185;28;45343;-56
2023/01/16 06:47:20;;;;;;;;;0.50;0.50;;;;;6.92;73.46;97601.22;5060153;28;45333;-55
2023/01/16 06:49:45;;;;;;;;;1.75;0.00;;;;;6.85;72.57;97590.22;5061159;28;45370;-56
2023/01/16 06:52:11;;;;;;;;;0.50;0.00;;;;;6.85;72.61;97587.63;5061040;28;45362;-56
2023/01/16 06:54:36;;;;;;;;;3.25;0.50;;;;;6.76;73.67;97588.09;5060743;28;45341;-55
2023/01/16 06:57:01;;;;;;;;;1.00;1.00;;;;;6.76;73.32;97570.66;5061309;28;45255;-56
2023/01/16 06:59:27;;;;;;;;;3.00;0.00;;;;;6.88;73.56;97573.56;5061023;28;45304;-57
2023/01/16 07:01:52;;;;;;;;;0.75;0.00;;;;;6.88;73.47;97577.03;5061009;28;45336;-56
2023/01/16 07:04:17;;;;;;;;;0.50;0.00;;;;;6.75;73.21;97566.34;5059525;28;45514;-57
2023/01/16 07:06:45;;;;;;;;;0.25;0.00;;;;;6.77;73.18;97572.34;5061243;28;45496;-55
2023/01/16 07:09:11;;;;;;;;;0.00;0.00;;;;;6.76;73.25;97554.16;5059952;28;45145;-56
2023/01/16 07:11:36;;;;;;;;;0.50;0.00;;;;;6.79;73.30;97546.16;5060104;28;45739;-57
2023/01/16 07:22:34;;;;;;;;;2.25;1.50;;;;;6.76;72.40;97492.34;5018064;28;45465;-55
2023/01/16 07:25:02;;;;;;;;;0.00;0.00;;;;;6.79;72.64;97500.03;5051718;28;45236;-56
2023/01/16 07:27:28;;;;;;;;;3.25;1.00;;;;;6.79;73.13;97493.97;5060574;28;45276;-57
2023/01/16 07:29:53;;;;;;;;;0.75;0.00;;;;;6.74;72.64;97491.59;5061742;28;45346;-56
2023/01/16 07:32:20;;;;;;;;;2.00;0.25;;;;;6.67;72.76;97474.56;5060274;28;45295;-56
2023/01/16 07:34:45;;;;;;;;;3.00;0.00;;;;;6.81;73.14;97453.81;5060492;28;45352;-55
2023/01/16 07:37:10;;;;;;;;;1.00;1.00;;;;;6.77;72.72;97456.66;5060482;28;45368;-56
2023/01/16 07:39:38;;;;;;;;;1.25;0.25;;;;;6.68;72.43;97439.72;5060357;28;45380;-56
2023/01/16 07:42:05;;;;;;;;;2.00;1.00;;;;;6.72;72.72;97430.78;5060221;28;46296;-55
2023/01/16 07:44:30;;;;;;;;;0.00;0.00;;;;;6.72;72.55;97433.41;5060421;28;45216;-56
2023/01/16 07:46:56;;;;;;;;;1.75;0.00;;;;;6.73;73.06;97442.94;5060353;28;45695;-56
2023/01/16 07:49:21;;;;;;;;;0.00;0.00;;;;;6.68;72.95;97434.50;5060422;28;45444;-56
2023/01/16 07:51:47;;;;;;;;;2.00;0.00;;;;;6.65;72.93;97425.06;5060020;28;45315;-56
2023/01/16 07:54:13;;;;;;;;;2.00;2.00;;;;;6.65;72.95;97425.06;5059953;28;45248;-55
2023/01/16 07:56:38;;;;;;;;;2.00;0.25;;;;;6.70;73.24;97409.16;5060167;28;45322;-55
2023/01/16 07:59:04;;;;;;;;;0.00;0.00;;;;;6.72;73.23;97424.75;5060105;28;45453;-55
2023/01/16 08:01:29;;;;;;;;;0.00;0.00;;;;;6.70;73.05;97408.31;5059947;28;47128;-56
2023/01/16 08:03:55;;;;;;;;;2.25;0.00;;;;;6.63;73.07;97384.31;5060027;28;45432;-55
2023/01/16 08:06:20;;;;;;;;;0.00;0.00;;;;;6.75;73.35;97401.91;5058904;28;45281;-55
2023/01/16 08:08:45;;;;;;;;;2.00;0.00;;;;;6.65;72.79;97385.91;5058541;28;45426;-54
2023/01/16 08:13:55;;;;;;;;;0.25;0.25;;;;;6.65;73.09;97356.34;5059948;28;45385;-56
2023/01/16 08:16:20;;;;;;;;;0.00;0.00;;;;;6.66;72.89;97356.28;5060114;28;45387;-55
2023/01/16 08:18:48;;;;;;;;;1.50;0.00;;;;;6.71;73.27;97335.16;5060013;28;45249;-55
2023/01/16 08:21:14;;;;;;;;;0.00;0.00;;;;;6.70;73.43;97348.28;5061821;28;46957;-55
2023/01/16 08:23:40;;;;;;;;;0.75;0.00;;;;;6.69;73.14;97330.94;5063315;28;45348;-53
2023/01/16 08:26:05;;;;;;;;;0.00;0.00;;;;;6.67;73.27;97325.81;5062305;28;45258;-56
2023/01/16 08:28:31;;;;;;;;;0.00;0.00;;;;;6.74;72.66;97308.91;5063407;28;45438;-56
2023/01/16 08:31:03;;;;;;;;;1.00;0.00;;;;;6.67;72.39;97313.59;5062039;28;47098;-54
2023/01/16 08:33:29;;;;;;;;;1.00;0.00;;;;;6.62;72.84;97293.91;5063401;28;45255;-55
2023/01/16 08:35:57;;;;;;;;;2.00;1.00;;;;;6.63;73.07;97295.59;5063426;28;45413;-56
2023/01/16 08:38:22;;;;;;;;;0.75;0.00;;;;;6.66;73.31;97306.69;5061711;28;45256;-56
2023/01/16 08:40:47;;;;;;;;;0.75;0.00;;;;;6.59;72.86;97283.63;5063056;28;46075;-56
2023/01/16 08:51:25;;;;;;;;;0.00;0.00;;;;;6.51;72.51;97391.00;5062846;28;45737;-55
2023/01/16 08:53:55;;;;;;;;;0.00;0.00;;;;;6.49;72.40;97330.22;5062756;28;45454;-55
2023/01/16 08:56:21;;;;;;;;;0.00;0.00;;;;;6.41;72.28;97301.91;5062979;28;45369;-55
2023/01/16 08:58:47;;;;;;;;;0.00;0.00;;;;;6.39;71.72;97316.81;5062884;28;45521;-55
2023/01/16 09:01:12;;;;;;;;;1.00;0.00;;;;;6.23;72.08;97303.72;5062623;28;45327;-55
2023/01/16 09:03:38;;;;;;;;;0.00;0.00;;;;;6.19;72.14;97310.03;5062808;28;45504;-56
2023/01/16 09:06:03;;;;;;;;;0.00;0.00;;;;;6.15;72.21;97324.13;5062993;28;45577;-55
2023/01/16 09:08:29;;;;;;;;;0.00;0.00;;;;;6.06;72.17;97306.34;5062657;28;45350;-54
2023/01/16 09:13:50;;;;;;;;;0.25;0.00;;;;;5.99;72.19;97324.06;5062613;28;45306;-54
2023/01/16 09:16:23;;;;;;;;;0.00;0.00;;;;;5.97;71.87;97324.09;5062804;28;45398;-54
2023/01/16 09:18:49;;;;;;;;;0.00;0.00;;;;;5.91;72.08;97342.66;5062573;28;45236;-55
2023/01/16 09:21:15;;;;;;;;;0.00;0.00;;;;;5.81;71.99;97324.03;5062511;28;46095;-55
2023/01/16 09:23:40;;;;;;;;;0.00;0.00;;;;;5.79;71.64;97327.63;5062373;28;45254;-55
2023/01/16 09:26:06;;;;;;;;;0.00;0.00;;;;;5.75;72.08;97326.94;5062973;28;45276;-54
2023/01/16 09:28:32;;;;;;;;;1.00;1.00;;;;;5.76;71.87;97338.19;5063583;28;45608;-54
2023/01/16 09:30:57;;;;;;;;;0.00;0.00;;;;;5.70;71.77;97336.75;5062437;28;45257;-54
2023/01/16 09:33:23;;;;;;;;;0.50;0.00;;;;;5.66;72.21;97356.03;5061695;28;45290;-55
2023/01/16 09:35:48;;;;;;;;;1.00;0.00;;;;;5.60;71.77;97358.94;5062522;28;45217;-54
2023/01/16 09:38:13;;;;;;;;;0.00;0.00;;;;;5.61;72.21;97368.44;5062088;28;45494;-54
2023/01/16 09:40:49;;;;;;;;;0.00;0.00;;;;;5.55;71.74;97390.41;5062435;28;45322;-54
2023/01/16 09:43:35;;;;;;;;;0.00;0.00;;;;;5.53;72.42;97392.25;5062215;28;45453;-55
2023/01/16 09:46:09;;;;;;;;;0.25;0.25;;;;;5.57;72.07;97398.16;5062405;28;45328;-55
2023/01/16 09:48:44;;;;;;;;;0.00;0.00;;;;;5.57;72.21;97416.38;5061922;28;45607;-54
2023/01/16 09:51:24;;;;;;;;;0.00;0.00;;;;;5.55;71.88;97426.88;5061923;28;46164;-55
2023/01/16 09:59:53;;;;;;;;;0.25;0.00;;;;;5.53;72.40;97450.41;5061754;28;45389;-55
2023/01/16 10:02:25;;;;;;;;;1.00;1.00;;;;;5.58;72.15;97457.16;5061830;28;46233;-55
2023/01/16 10:04:54;;;;;;;;;0.00;0.00;;;;;5.54;72.06;97474.69;5061578;28;45227;-54
2023/01/16 10:08:01;;;;;;;;;0.00;0.00;;;;;5.58;72.30;97476.22;5061748;28;45359;-54
2023/01/16 10:10:42;;;;;;;;;0.00;0.00;;;;;5.63;72.43;97489.88;5043506;28;45408;-54
2023/01/16 10:13:23;;;;;;;;;0.00;0.00;;;;;5.59;72.29;97490.13;5060067;28;45256;-54
2023/01/16 10:16:32;;;;;;;;;0.25;0.00;;;;;5.70;72.57;97519.13;5060225;28;45295;-55
2023/01/16 10:19:06;;;;;;;;;0.00;0.00;;;;;5.76;72.37;97531.88;5061666;28;45224;-53
2023/01/16 10:21:56;;;;;;;;;0.75;0.75;;;;;5.78;72.51;97537.84;5061714;28;45169;-55
2023/01/16 10:24:48;;;;;;;;;1.25;0.50;;;;;5.86;72.51;97551.38;5061458;28;45391;-55
2023/01/16 10:27:25;;;;;;;;;1.25;0.00;;;;;5.94;72.48;97558.00;5060124;28;45335;-54
2023/01/16 10:30:01;;;;;;;;;0.00;0.00;;;;;5.95;72.34;97565.75;5061596;28;45350;-55
2023/01/16 10:32:32;;;;;;;;;1.00;1.00;;;;;5.96;72.53;97584.81;5061356;28;45439;-55
2023/01/16 10:35:20;;;;;;;;;0.25;0.25;;;;;6.06;72.81;97593.94;5061195;28;46062;-56
2023/01/16 10:37:46;;;;;;;;;0.25;0.25;;;;;6.13;72.62;97599.75;5061249;28;45315;-55
2023/01/16 10:40:17;;;;;;;;;0.00;0.00;;;;;6.17;72.58;97617.75;5059962;28;45432;-55
2023/01/16 10:51:06;;;;;;;;;1.00;1.00;;;;;6.22;73.05;97640.19;5061303;28;45245;-55
2023/01/16 10:53:32;;;;;;;;;2.00;1.00;;;;;6.22;72.82;97656.66;5060941;28;45235;-55
2023/01/16 10:55:58;;;;;;;;;0.00;0.00;;;;;6.18;72.77;97653.34;5059678;28;45265;-56
2023/01/16 10:58:28;;;;;;;;;0.25;0.00;;;;;6.21;72.29;97665.41;5060916;28;45361;-55
2023/01/16 11:01:22;;;;;;;;;4.00;2.25;;;;;6.25;72.17;97692.19;5061215;28;45330;-54
2023/01/16 11:03:54;;;;;;;;;0.00;0.00;;;;;6.22;72.06;97687.13;5059939;27;45322;-56
2023/01/16 11:06:27;;;;;;;;;0.00;0.00;;;;;6.25;72.13;97692.19;5060704;28;45418;-56
2023/01/16 11:08:59;;;;;;;;;1.00;1.00;;;;;6.24;72.38;97700.94;5060686;28;45161;-56
2023/01/16 11:20:30;;;;;;;;;0.00;0.00;;;;;6.33;71.65;97763.97;5060928;28;45227;-54
2023/01/16 11:23:14;;;;;;;;;0.25;0.00;;;;;6.39;71.48;97762.00;5060697;28;45256;-55
2023/01/16 11:25:40;;;;;;;;;0.00;0.00;;;;;6.34;71.63;97780.47;5060545;28;45224;-55
2023/01/16 11:28:12;;;;;;;;;0.00;0.00;;;;;6.34;71.57;97791.75;5060357;28;46610;-54
2023/01/16 11:30:42;;;;;;;;;0.00;0.00;;;;;6.35;71.68;97779.53;5059246;28;45307;-56
2023/01/16 11:33:18;;;;;;;;;0.00;0.00;;;;;6.34;71.49;97806.56;5060361;28;45234;-55
2023/01/16 11:35:52;;;;;;;;;0.00;0.00;;;;;6.35;71.51;97787.38;5060283;28;45572;-56
2023/01/16 11:38:18;;;;;;;;;0.75;0.75;;;;;6.33;71.70;97810.91;5059980;28;46352;-55
2023/01/16 11:40:46;;;;;;;;;0.00;0.00;;;;;6.37;71.52;97797.75;5060442;28;45418;-55
2023/01/16 11:46:02;;;;;;;;;0.00;0.00;;;;;6.43;71.56;97840.06;5060424;28;45237;-54
2023/01/16 11:48:27;;;;;;;;;1.00;1.00;;;;;6.34;71.65;97823.03;5058745;28;47322;-54
2023/01/16 11:50:57;;;;;;;;;0.00;0.00;;;;;6.44;71.44;97873.06;5060309;28;45219;-55
2023/01/16 11:53:30;;;;;;;;;1.00;0.00;;;;;6.45;71.43;97850.41;5058637;28;45351;-54
2023/01/16 11:56:33;;;;;;;;;0.00;0.00;;;;;6.46;71.73;97867.78;5059578;28;46106;-55
2023/01/16 11:59:26;;;;;;;;;1.50;0.25;;;;;6.46;71.58;97873.81;5059949;28;46018;-55
2023/01/16 12:02:16;;;;;;;;;0.00;0.00;;;;;6.54;71.71;97891.78;5060018;28;45364;-53
2023/01/16 12:08:10;;;;;;;;;0.00;0.00;;;;;6.60;71.49;97921.97;5059568;27;45400;-54
2023/01/16 12:10:45;;;;;;;;;0.00;0.00;;;;;6.60;71.36;97912.41;5059249;28;46298;-54
2023/01/16 12:16:20;;;;;;;;;0.00;0.00;;;;;6.61;70.99;97929.72;5058889;28;45470;-54
2023/01/16 12:19:04;;;;;;;;;0.00;0.00;;;;;6.69;71.17;97941.59;5059794;28;45338;-55
2023/01/16 12:22:00;;;;;;;;;0.00;0.00;;;;;6.73;71.21;97953.59;5059575;28;46448;-55
2023/01/16 12:24:46;;;;;;;;;0.00;0.00;;;;;6.72;70.89;97959.75;5059742;28;45339;-54
2023/01/16 12:27:31;;;;;;;;;2.00;0.75;;;;;6.75;71.00;97978.72;5059680;28;45315;-53
2023/01/16 12:30:05;;;;;;;;;1.00;1.00;;;;;6.81;70.94;97975.84;5059657;28;45579;-54
2023/01/16 12:32:39;;;;;;;;;4.00;0.00;;;;;6.82;70.91;97982.78;5059745;28;45362;-54
2023/01/16 12:35:23;;;;;;;;;1.00;0.00;;;;;6.83;70.85;97981.03;5059627;28;45398;-54
2023/01/16 12:38:31;;;;;;;;;1.00;1.00;;;;;6.83;70.57;98007.13;5059557;28;45434;-55
2023/01/16 12:43:17;;;;;;;;;0.25;0.25;;;;;6.85;70.75;98007.06;5059472;28;45529;-56
2023/01/16 12:43:48;;;;;;;;;1.00;1.00;;;;;6.87;70.67;98026.97;5059295;28;45331;-55
2023/01/16 12:46:40;;;;;;;;;0.00;0.00;;;;;6.85;70.93;98020.94;5059637;28;45307;-56
2023/01/16 12:49:17;;;;;;;;;0.75;0.00;;;;;6.92;70.29;98038.06;5059321;28;45406;-56
2023/01/16 12:51:57;;;;;;;;;2.00;2.00;;;;;6.87;70.98;98028.72;5059522;28;45400;-55
2023/01/16 12:54:35;;;;;;;;;2.75;1.00;;;;;6.86;70.76;98038.31;5059171;28;45420;-56
2023/01/16 12:57:28;;;;;;;;;1.00;1.00;;;;;6.87;70.57;98058.28;5059456;28;45316;-55
2023/01/16 13:00:00;;;;;;;;;5.00;2.00;;;;;6.86;70.35;98058.38;5059273;28;45484;-54
2023/01/16 13:02:34;;;;;;;;;0.75;0.75;;;;;6.81;70.28;98080.28;5059307;28;45300;-54